sensor_id;sensor_type;location;lat;lon;timestamp;P1;durP1;ratioP1;P2;durP2;ratioP2
73593;SDS011;64760;53.404;23.498;2022-11-23T00:01:18;19.08;;;7.80;;
73593;SDS011;64760;53.404;23.498;2022-11-23T00:03:52;23.63;;;6.78;;
73593;SDS011;64760;53.404;23.498;2022-11-23T00:06:21;21.00;;;8.98;;
73593;SDS011;64760;53.404;23.498;2022-11-23T00:08:49;18.00;;;7.80;;
73593;SDS011;64760;53.404;23.498;2022-11-23T00:11:16;19.17;;;7.85;;
73593;SDS011;64760;53.404;23.498;2022-11-23T00:13:43;15.70;;;6.63;;
73593;SDS011;64760;53.404;23.498;2022-11-23T00:16:12;20.58;;;7.30;;
73593;SDS011;64760;53.404;23.498;2022-11-23T00:18:52;29.55;;;8.75;;
73593;SDS011;64760;53.404;23.498;2022-11-23T00:21:24;26.67;;;8.65;;
73593;SDS011;64760;53.404;23.498;2022-11-23T00:23:51;22.95;;;9.25;;
73593;SDS011;64760;53.404;23.498;2022-11-23T00:26:17;16.60;;;7.45;;
73593;SDS011;64760;53.404;23.498;2022-11-23T00:28:46;15.82;;;7.40;;
73593;SDS011;64760;53.404;23.498;2022-11-23T00:31:13;16.90;;;6.75;;
73593;SDS011;64760;53.404;23.498;2022-11-23T00:33:42;16.10;;;6.95;;
73593;SDS011;64760;53.404;23.498;2022-11-23T00:36:13;13.48;;;5.82;;
73593;SDS011;64760;53.404;23.498;2022-11-23T00:38:41;18.15;;;7.03;;
73593;SDS011;64760;53.404;23.498;2022-11-23T00:41:12;16.85;;;7.18;;
73593;SDS011;64760;53.404;23.498;2022-11-23T00:43:41;23.88;;;7.68;;
73593;SDS011;64760;53.404;23.498;2022-11-23T00:46:15;20.73;;;6.57;;
73593;SDS011;64760;53.404;23.498;2022-11-23T00:48:44;19.67;;;8.55;;
73593;SDS011;64760;53.404;23.498;2022-11-23T00:51:16;18.23;;;7.50;;
73593;SDS011;64760;53.404;23.498;2022-11-23T00:53:44;15.98;;;6.40;;
73593;SDS011;64760;53.404;23.498;2022-11-23T00:59:41;20.00;;;6.60;;
73593;SDS011;64760;53.404;23.498;2022-11-23T01:02:07;24.30;;;8.15;;
73593;SDS011;64760;53.404;23.498;2022-11-23T01:04:33;16.77;;;6.07;;
73593;SDS011;64760;53.404;23.498;2022-11-23T01:07:00;22.52;;;8.15;;
73593;SDS011;64760;53.404;23.498;2022-11-23T01:09:26;18.92;;;6.97;;
73593;SDS011;64760;53.404;23.498;2022-11-23T01:11:53;16.77;;;7.43;;
73593;SDS011;64760;53.404;23.498;2022-11-23T01:14:22;24.70;;;8.55;;
73593;SDS011;64760;53.404;23.498;2022-11-23T01:16:49;28.55;;;10.52;;
73593;SDS011;64760;53.404;23.498;2022-11-23T01:19:16;23.45;;;8.85;;
73593;SDS011;64760;53.404;23.498;2022-11-23T01:21:47;17.45;;;6.35;;
73593;SDS011;64760;53.404;23.498;2022-11-23T01:24:16;22.90;;;8.93;;
73593;SDS011;64760;53.404;23.498;2022-11-23T01:26:50;23.02;;;8.60;;
73593;SDS011;64760;53.404;23.498;2022-11-23T01:29:19;20.17;;;6.60;;
73593;SDS011;64760;53.404;23.498;2022-11-23T01:31:47;14.15;;;5.30;;
73593;SDS011;64760;53.404;23.498;2022-11-23T01:34:13;16.02;;;5.80;;
73593;SDS011;64760;53.404;23.498;2022-11-23T01:36:41;22.02;;;7.35;;
73593;SDS011;64760;53.404;23.498;2022-11-23T01:39:08;18.08;;;6.93;;
73593;SDS011;64760;53.404;23.498;2022-11-23T01:41:36;23.60;;;7.55;;
73593;SDS011;64760;53.404;23.498;2022-11-23T01:46:53;19.13;;;7.47;;
73593;SDS011;64760;53.404;23.498;2022-11-23T01:49:20;18.27;;;4.80;;
73593;SDS011;64760;53.404;23.498;2022-11-23T01:51:49;19.30;;;7.93;;
73593;SDS011;64760;53.404;23.498;2022-11-23T01:54:26;19.55;;;7.63;;
73593;SDS011;64760;53.404;23.498;2022-11-23T01:57:05;19.73;;;6.00;;
73593;SDS011;64760;53.404;23.498;2022-11-23T01:59:34;17.73;;;5.88;;
73593;SDS011;64760;53.404;23.498;2022-11-23T02:02:01;14.77;;;4.70;;
73593;SDS011;64760;53.404;23.498;2022-11-23T02:04:29;24.88;;;7.40;;
73593;SDS011;64760;53.404;23.498;2022-11-23T02:07:00;16.25;;;6.53;;
73593;SDS011;64760;53.404;23.498;2022-11-23T02:09:28;21.83;;;6.65;;
73593;SDS011;64760;53.404;23.498;2022-11-23T02:11:57;16.60;;;5.50;;
73593;SDS011;64760;53.404;23.498;2022-11-23T02:14:23;16.50;;;7.10;;
73593;SDS011;64760;53.404;23.498;2022-11-23T02:16:54;17.75;;;6.45;;
73593;SDS011;64760;53.404;23.498;2022-11-23T02:22:01;14.43;;;5.35;;
73593;SDS011;64760;53.404;23.498;2022-11-23T02:24:33;14.00;;;5.88;;
73593;SDS011;64760;53.404;23.498;2022-11-23T02:27:07;13.13;;;5.50;;
73593;SDS011;64760;53.404;23.498;2022-11-23T02:29:33;14.02;;;5.53;;
73593;SDS011;64760;53.404;23.498;2022-11-23T02:32:00;14.48;;;4.75;;
73593;SDS011;64760;53.404;23.498;2022-11-23T02:34:26;15.27;;;5.65;;
73593;SDS011;64760;53.404;23.498;2022-11-23T02:36:53;9.88;;;4.15;;
73593;SDS011;64760;53.404;23.498;2022-11-23T02:39:23;11.18;;;4.05;;
73593;SDS011;64760;53.404;23.498;2022-11-23T02:41:57;10.70;;;4.78;;
73593;SDS011;64760;53.404;23.498;2022-11-23T02:44:28;15.20;;;4.85;;
73593;SDS011;64760;53.404;23.498;2022-11-23T02:46:57;13.57;;;4.85;;
73593;SDS011;64760;53.404;23.498;2022-11-23T02:49:24;11.50;;;4.13;;
73593;SDS011;64760;53.404;23.498;2022-11-23T02:51:50;9.35;;;4.07;;
73593;SDS011;64760;53.404;23.498;2022-11-23T02:54:17;14.10;;;5.35;;
73593;SDS011;64760;53.404;23.498;2022-11-23T02:56:43;20.05;;;5.57;;
73593;SDS011;64760;53.404;23.498;2022-11-23T02:59:09;13.75;;;4.93;;
73593;SDS011;64760;53.404;23.498;2022-11-23T03:01:36;19.20;;;5.97;;
73593;SDS011;64760;53.404;23.498;2022-11-23T03:04:05;22.95;;;7.53;;
73593;SDS011;64760;53.404;23.498;2022-11-23T03:06:32;20.95;;;7.10;;
73593;SDS011;64760;53.404;23.498;2022-11-23T03:08:58;20.10;;;6.30;;
73593;SDS011;64760;53.404;23.498;2022-11-23T03:11:25;16.58;;;6.13;;
73593;SDS011;64760;53.404;23.498;2022-11-23T03:13:51;17.73;;;5.72;;
73593;SDS011;64760;53.404;23.498;2022-11-23T03:16:19;15.95;;;7.15;;
73593;SDS011;64760;53.404;23.498;2022-11-23T03:18:46;16.40;;;6.95;;
73593;SDS011;64760;53.404;23.498;2022-11-23T03:21:13;15.57;;;6.07;;
73593;SDS011;64760;53.404;23.498;2022-11-23T03:23:39;17.98;;;8.10;;
73593;SDS011;64760;53.404;23.498;2022-11-23T03:26:07;23.17;;;8.75;;
73593;SDS011;64760;53.404;23.498;2022-11-23T03:28:40;22.58;;;10.20;;
73593;SDS011;64760;53.404;23.498;2022-11-23T03:31:07;17.55;;;6.82;;
73593;SDS011;64760;53.404;23.498;2022-11-23T03:33:34;13.93;;;6.00;;
73593;SDS011;64760;53.404;23.498;2022-11-23T03:36:00;8.85;;;4.10;;
73593;SDS011;64760;53.404;23.498;2022-11-23T03:38:33;15.38;;;5.50;;
73593;SDS011;64760;53.404;23.498;2022-11-23T03:41:00;17.25;;;5.95;;
73593;SDS011;64760;53.404;23.498;2022-11-23T03:43:48;7.70;;;3.28;;
73593;SDS011;64760;53.404;23.498;2022-11-23T03:46:15;19.42;;;5.32;;
73593;SDS011;64760;53.404;23.498;2022-11-23T03:48:41;12.60;;;5.55;;
73593;SDS011;64760;53.404;23.498;2022-11-23T03:51:08;19.98;;;5.13;;
73593;SDS011;64760;53.404;23.498;2022-11-23T03:53:35;17.08;;;6.45;;
73593;SDS011;64760;53.404;23.498;2022-11-23T03:56:05;19.60;;;6.97;;
73593;SDS011;64760;53.404;23.498;2022-11-23T04:02:24;17.38;;;6.30;;
73593;SDS011;64760;53.404;23.498;2022-11-23T04:05:01;25.52;;;4.82;;
73593;SDS011;64760;53.404;23.498;2022-11-23T04:08:05;12.60;;;5.30;;
73593;SDS011;64760;53.404;23.498;2022-11-23T04:10:32;13.98;;;6.57;;
73593;SDS011;64760;53.404;23.498;2022-11-23T04:13:04;9.57;;;4.60;;
73593;SDS011;64760;53.404;23.498;2022-11-23T04:15:31;15.00;;;5.13;;
73593;SDS011;64760;53.404;23.498;2022-11-23T04:17:57;12.55;;;5.80;;
73593;SDS011;64760;53.404;23.498;2022-11-23T04:20:24;9.85;;;4.50;;
73593;SDS011;64760;53.404;23.498;2022-11-23T04:22:50;13.90;;;5.68;;
73593;SDS011;64760;53.404;23.498;2022-11-23T04:25:17;16.90;;;5.95;;
73593;SDS011;64760;53.404;23.498;2022-11-23T04:27:45;12.23;;;5.00;;
73593;SDS011;64760;53.404;23.498;2022-11-23T04:30:12;14.23;;;5.10;;
73593;SDS011;64760;53.404;23.498;2022-11-23T04:32:39;10.55;;;4.95;;
73593;SDS011;64760;53.404;23.498;2022-11-23T04:35:05;12.05;;;5.13;;
73593;SDS011;64760;53.404;23.498;2022-11-23T04:37:34;16.85;;;5.35;;
73593;SDS011;64760;53.404;23.498;2022-11-23T04:40:00;10.73;;;4.53;;
73593;SDS011;64760;53.404;23.498;2022-11-23T04:42:40;10.40;;;4.45;;
73593;SDS011;64760;53.404;23.498;2022-11-23T04:45:06;13.63;;;5.00;;
73593;SDS011;64760;53.404;23.498;2022-11-23T04:47:33;16.38;;;6.60;;
73593;SDS011;64760;53.404;23.498;2022-11-23T04:50:03;17.55;;;7.13;;
73593;SDS011;64760;53.404;23.498;2022-11-23T04:52:31;14.98;;;6.35;;
73593;SDS011;64760;53.404;23.498;2022-11-23T04:54:58;12.05;;;4.88;;
73593;SDS011;64760;53.404;23.498;2022-11-23T04:57:24;11.45;;;5.43;;
73593;SDS011;64760;53.404;23.498;2022-11-23T04:59:52;13.80;;;5.65;;
73593;SDS011;64760;53.404;23.498;2022-11-23T05:02:18;11.38;;;5.13;;
73593;SDS011;64760;53.404;23.498;2022-11-23T05:04:52;12.50;;;5.57;;
73593;SDS011;64760;53.404;23.498;2022-11-23T05:07:19;23.10;;;10.60;;
73593;SDS011;64760;53.404;23.498;2022-11-23T05:09:52;22.17;;;8.73;;
73593;SDS011;64760;53.404;23.498;2022-11-23T05:12:21;23.77;;;8.50;;
73593;SDS011;64760;53.404;23.498;2022-11-23T05:14:48;14.27;;;6.47;;
73593;SDS011;64760;53.404;23.498;2022-11-23T05:17:19;10.95;;;4.70;;
73593;SDS011;64760;53.404;23.498;2022-11-23T05:19:47;9.57;;;4.32;;
73593;SDS011;64760;53.404;23.498;2022-11-23T05:22:14;17.50;;;7.63;;
73593;SDS011;64760;53.404;23.498;2022-11-23T05:24:42;10.98;;;5.35;;
73593;SDS011;64760;53.404;23.498;2022-11-23T05:27:13;15.50;;;6.28;;
73593;SDS011;64760;53.404;23.498;2022-11-23T05:29:40;17.75;;;7.38;;
73593;SDS011;64760;53.404;23.498;2022-11-23T05:32:06;22.02;;;10.77;;
73593;SDS011;64760;53.404;23.498;2022-11-23T05:34:33;15.20;;;7.13;;
73593;SDS011;64760;53.404;23.498;2022-11-23T05:37:01;17.98;;;6.72;;
73593;SDS011;64760;53.404;23.498;2022-11-23T05:39:28;17.25;;;6.35;;
73593;SDS011;64760;53.404;23.498;2022-11-23T05:41:54;16.67;;;6.50;;
73593;SDS011;64760;53.404;23.498;2022-11-23T05:44:30;16.85;;;7.82;;
73593;SDS011;64760;53.404;23.498;2022-11-23T05:46:58;13.65;;;6.25;;
73593;SDS011;64760;53.404;23.498;2022-11-23T05:49:27;20.15;;;8.75;;
73593;SDS011;64760;53.404;23.498;2022-11-23T05:51:53;21.85;;;8.15;;
73593;SDS011;64760;53.404;23.498;2022-11-23T05:54:20;22.25;;;10.68;;
73593;SDS011;64760;53.404;23.498;2022-11-23T05:56:57;17.45;;;7.18;;
73593;SDS011;64760;53.404;23.498;2022-11-23T05:59:34;20.35;;;10.05;;
73593;SDS011;64760;53.404;23.498;2022-11-23T06:02:01;21.02;;;7.82;;
73593;SDS011;64760;53.404;23.498;2022-11-23T06:04:31;18.77;;;6.82;;
73593;SDS011;64760;53.404;23.498;2022-11-23T06:06:58;23.63;;;9.13;;
73593;SDS011;64760;53.404;23.498;2022-11-23T06:09:28;18.42;;;6.13;;
73593;SDS011;64760;53.404;23.498;2022-11-23T06:11:58;19.48;;;6.03;;
73593;SDS011;64760;53.404;23.498;2022-11-23T06:14:25;18.30;;;5.80;;
73593;SDS011;64760;53.404;23.498;2022-11-23T06:16:52;18.80;;;8.10;;
73593;SDS011;64760;53.404;23.498;2022-11-23T06:19:33;21.58;;;7.97;;
73593;SDS011;64760;53.404;23.498;2022-11-23T06:22:00;25.15;;;7.85;;
73593;SDS011;64760;53.404;23.498;2022-11-23T06:24:30;23.63;;;10.20;;
73593;SDS011;64760;53.404;23.498;2022-11-23T06:27:19;21.42;;;8.77;;
73593;SDS011;64760;53.404;23.498;2022-11-23T06:29:47;21.58;;;10.38;;
73593;SDS011;64760;53.404;23.498;2022-11-23T06:32:14;26.02;;;10.15;;
73593;SDS011;64760;53.404;23.498;2022-11-23T06:34:41;36.33;;;12.75;;
73593;SDS011;64760;53.404;23.498;2022-11-23T06:37:08;29.67;;;10.20;;
73593;SDS011;64760;53.404;23.498;2022-11-23T06:39:35;28.42;;;10.73;;
73593;SDS011;64760;53.404;23.498;2022-11-23T06:42:02;26.33;;;9.80;;
73593;SDS011;64760;53.404;23.498;2022-11-23T06:44:29;17.38;;;6.57;;
73593;SDS011;64760;53.404;23.498;2022-11-23T06:46:55;23.45;;;8.68;;
73593;SDS011;64760;53.404;23.498;2022-11-23T06:49:21;20.92;;;8.88;;
73593;SDS011;64760;53.404;23.498;2022-11-23T06:52:05;21.48;;;7.30;;
73593;SDS011;64760;53.404;23.498;2022-11-23T06:54:32;21.13;;;8.80;;
73593;SDS011;64760;53.404;23.498;2022-11-23T07:00:38;22.67;;;8.75;;
73593;SDS011;64760;53.404;23.498;2022-11-23T07:03:05;20.73;;;8.38;;
73593;SDS011;64760;53.404;23.498;2022-11-23T07:05:39;17.38;;;7.00;;
73593;SDS011;64760;53.404;23.498;2022-11-23T07:08:06;28.98;;;10.75;;
73593;SDS011;64760;53.404;23.498;2022-11-23T07:10:32;39.95;;;14.00;;
73593;SDS011;64760;53.404;23.498;2022-11-23T07:13:06;29.92;;;12.88;;
73593;SDS011;64760;53.404;23.498;2022-11-23T07:15:35;15.55;;;8.23;;
73593;SDS011;64760;53.404;23.498;2022-11-23T07:18:02;19.90;;;9.27;;
73593;SDS011;64760;53.404;23.498;2022-11-23T07:20:30;29.90;;;11.63;;
73593;SDS011;64760;53.404;23.498;2022-11-23T07:23:09;26.13;;;12.15;;
73593;SDS011;64760;53.404;23.498;2022-11-23T07:25:38;20.83;;;8.35;;
73593;SDS011;64760;53.404;23.498;2022-11-23T07:28:05;26.27;;;9.73;;
73593;SDS011;64760;53.404;23.498;2022-11-23T07:30:32;39.17;;;14.40;;
73593;SDS011;64760;53.404;23.498;2022-11-23T07:35:31;55.58;;;19.63;;
73593;SDS011;64760;53.404;23.498;2022-11-23T07:37:58;50.53;;;21.42;;
73593;SDS011;64760;53.404;23.498;2022-11-23T07:40:25;43.55;;;15.65;;
73593;SDS011;64760;53.404;23.498;2022-11-23T07:42:59;32.70;;;12.98;;
73593;SDS011;64760;53.404;23.498;2022-11-23T07:45:28;50.47;;;21.63;;
73593;SDS011;64760;53.404;23.498;2022-11-23T07:47:56;24.52;;;11.18;;
73593;SDS011;64760;53.404;23.498;2022-11-23T07:50:27;29.83;;;12.73;;
73593;SDS011;64760;53.404;23.498;2022-11-23T07:52:54;18.08;;;7.65;;
73593;SDS011;64760;53.404;23.498;2022-11-23T07:55:21;24.50;;;9.60;;
73593;SDS011;64760;53.404;23.498;2022-11-23T07:57:51;25.13;;;8.95;;
73593;SDS011;64760;53.404;23.498;2022-11-23T08:00:19;27.63;;;10.75;;
73593;SDS011;64760;53.404;23.498;2022-11-23T08:02:47;25.08;;;9.65;;
73593;SDS011;64760;53.404;23.498;2022-11-23T08:05:14;25.05;;;10.20;;
73593;SDS011;64760;53.404;23.498;2022-11-23T08:07:43;36.10;;;17.75;;
73593;SDS011;64760;53.404;23.498;2022-11-23T08:10:11;28.10;;;10.50;;
73593;SDS011;64760;53.404;23.498;2022-11-23T08:15:04;26.60;;;9.18;;
73593;SDS011;64760;53.404;23.498;2022-11-23T08:17:32;26.95;;;10.27;;
73593;SDS011;64760;53.404;23.498;2022-11-23T08:19:58;24.55;;;9.25;;
73593;SDS011;64760;53.404;23.498;2022-11-23T08:22:25;25.50;;;9.05;;
73593;SDS011;64760;53.404;23.498;2022-11-23T08:24:52;36.95;;;14.80;;
73593;SDS011;64760;53.404;23.498;2022-11-23T08:27:19;48.85;;;19.67;;
73593;SDS011;64760;53.404;23.498;2022-11-23T08:29:46;27.95;;;11.93;;
73593;SDS011;64760;53.404;23.498;2022-11-23T08:32:12;29.23;;;11.25;;
73593;SDS011;64760;53.404;23.498;2022-11-23T08:34:38;24.15;;;9.57;;
73593;SDS011;64760;53.404;23.498;2022-11-23T08:37:07;26.00;;;9.90;;
73593;SDS011;64760;53.404;23.498;2022-11-23T08:39:34;24.80;;;9.15;;
73593;SDS011;64760;53.404;23.498;2022-11-23T08:42:00;22.00;;;8.05;;
73593;SDS011;64760;53.404;23.498;2022-11-23T08:44:27;20.45;;;9.60;;
73593;SDS011;64760;53.404;23.498;2022-11-23T08:46:53;22.23;;;10.02;;
73593;SDS011;64760;53.404;23.498;2022-11-23T08:49:20;24.63;;;9.18;;
73593;SDS011;64760;53.404;23.498;2022-11-23T08:51:46;30.75;;;11.00;;
73593;SDS011;64760;53.404;23.498;2022-11-23T08:54:13;30.67;;;12.63;;
73593;SDS011;64760;53.404;23.498;2022-11-23T08:56:39;21.60;;;8.50;;
73593;SDS011;64760;53.404;23.498;2022-11-23T08:59:06;25.77;;;9.82;;
73593;SDS011;64760;53.404;23.498;2022-11-23T09:01:33;31.77;;;12.10;;
73593;SDS011;64760;53.404;23.498;2022-11-23T09:04:00;39.55;;;13.52;;
73593;SDS011;64760;53.404;23.498;2022-11-23T09:06:31;56.45;;;19.48;;
73593;SDS011;64760;53.404;23.498;2022-11-23T09:08:58;59.95;;;21.65;;
73593;SDS011;64760;53.404;23.498;2022-11-23T09:11:24;29.13;;;10.30;;
73593;SDS011;64760;53.404;23.498;2022-11-23T09:13:52;42.92;;;11.88;;
73593;SDS011;64760;53.404;23.498;2022-11-23T09:16:18;34.70;;;13.60;;
73593;SDS011;64760;53.404;23.498;2022-11-23T09:18:45;38.60;;;12.85;;
73593;SDS011;64760;53.404;23.498;2022-11-23T09:23:40;27.65;;;10.05;;
73593;SDS011;64760;53.404;23.498;2022-11-23T09:26:06;45.35;;;15.48;;
73593;SDS011;64760;53.404;23.498;2022-11-23T09:28:34;30.60;;;11.70;;
73593;SDS011;64760;53.404;23.498;2022-11-23T09:31:48;14.52;;;7.35;;
73593;SDS011;64760;53.404;23.498;2022-11-23T09:34:15;20.50;;;9.07;;
73593;SDS011;64760;53.404;23.498;2022-11-23T09:36:41;11.02;;;4.75;;
73593;SDS011;64760;53.404;23.498;2022-11-23T09:39:07;8.63;;;4.63;;
73593;SDS011;64760;53.404;23.498;2022-11-23T09:44:23;15.73;;;6.07;;
73593;SDS011;64760;53.404;23.498;2022-11-23T09:52:17;32.95;;;12.23;;
73593;SDS011;64760;53.404;23.498;2022-11-23T09:54:47;9.10;;;4.15;;
73593;SDS011;64760;53.404;23.498;2022-11-23T09:57:18;13.40;;;4.90;;
73593;SDS011;64760;53.404;23.498;2022-11-23T09:59:59;9.40;;;4.15;;
73593;SDS011;64760;53.404;23.498;2022-11-23T10:02:31;12.05;;;4.85;;
73593;SDS011;64760;53.404;23.498;2022-11-23T10:05:04;10.80;;;3.88;;
73593;SDS011;64760;53.404;23.498;2022-11-23T10:07:51;15.00;;;5.32;;
73593;SDS011;64760;53.404;23.498;2022-11-23T10:13:23;20.15;;;9.82;;
73593;SDS011;64760;53.404;23.498;2022-11-23T10:16:34;20.42;;;7.25;;
73593;SDS011;64760;53.404;23.498;2022-11-23T10:24:28;16.95;;;5.47;;
73593;SDS011;64760;53.404;23.498;2022-11-23T10:26:59;11.95;;;5.45;;
73593;SDS011;64760;53.404;23.498;2022-11-23T10:29:29;11.30;;;3.45;;
73593;SDS011;64760;53.404;23.498;2022-11-23T10:32:06;14.20;;;6.95;;
73593;SDS011;64760;53.404;23.498;2022-11-23T10:34:56;23.05;;;9.00;;
73593;SDS011;64760;53.404;23.498;2022-11-23T10:37:27;17.02;;;6.63;;
73593;SDS011;64760;53.404;23.498;2022-11-23T10:39:53;17.73;;;5.18;;
73593;SDS011;64760;53.404;23.498;2022-11-23T10:42:23;12.02;;;3.67;;
73593;SDS011;64760;53.404;23.498;2022-11-23T10:44:55;13.88;;;4.30;;
73593;SDS011;64760;53.404;23.498;2022-11-23T10:50:27;14.57;;;3.50;;
73593;SDS011;64760;53.404;23.498;2022-11-23T10:52:53;12.00;;;3.53;;
73593;SDS011;64760;53.404;23.498;2022-11-23T10:55:45;8.13;;;3.15;;
73593;SDS011;64760;53.404;23.498;2022-11-23T10:58:31;7.53;;;3.25;;
73593;SDS011;64760;53.404;23.498;2022-11-23T11:01:01;9.35;;;4.18;;
73593;SDS011;64760;53.404;23.498;2022-11-23T11:03:38;9.38;;;4.07;;
73593;SDS011;64760;53.404;23.498;2022-11-23T11:06:05;11.90;;;5.95;;
73593;SDS011;64760;53.404;23.498;2022-11-23T11:08:33;17.10;;;6.18;;
73593;SDS011;64760;53.404;23.498;2022-11-23T11:13:31;20.00;;;9.85;;
73593;SDS011;64760;53.404;23.498;2022-11-23T11:16:01;19.73;;;10.50;;
73593;SDS011;64760;53.404;23.498;2022-11-23T11:18:34;21.65;;;8.23;;
73593;SDS011;64760;53.404;23.498;2022-11-23T11:21:06;15.15;;;6.50;;
73593;SDS011;64760;53.404;23.498;2022-11-23T11:23:45;20.10;;;7.53;;
73593;SDS011;64760;53.404;23.498;2022-11-23T11:26:23;14.52;;;6.55;;
73593;SDS011;64760;53.404;23.498;2022-11-23T11:28:52;7.88;;;4.07;;
73593;SDS011;64760;53.404;23.498;2022-11-23T11:34:25;11.82;;;5.63;;
73593;SDS011;64760;53.404;23.498;2022-11-23T11:39:33;13.00;;;6.13;;
73593;SDS011;64760;53.404;23.498;2022-11-23T11:42:10;26.83;;;12.07;;
73593;SDS011;64760;53.404;23.498;2022-11-23T11:44:43;6.35;;;3.60;;
73593;SDS011;64760;53.404;23.498;2022-11-23T11:50:32;13.93;;;7.80;;
73593;SDS011;64760;53.404;23.498;2022-11-23T11:53:06;12.13;;;5.00;;
73593;SDS011;64760;53.404;23.498;2022-11-23T11:58:24;25.23;;;10.88;;
73593;SDS011;64760;53.404;23.498;2022-11-23T12:00:59;18.02;;;7.88;;
73593;SDS011;64760;53.404;23.498;2022-11-23T12:03:37;16.70;;;7.57;;
73593;SDS011;64760;53.404;23.498;2022-11-23T12:09:02;4.53;;;2.78;;
73593;SDS011;64760;53.404;23.498;2022-11-23T12:11:37;6.00;;;2.75;;
73593;SDS011;64760;53.404;23.498;2022-11-23T12:14:04;13.75;;;5.57;;
73593;SDS011;64760;53.404;23.498;2022-11-23T12:16:50;13.00;;;5.75;;
73593;SDS011;64760;53.404;23.498;2022-11-23T12:19:29;11.52;;;4.50;;
73593;SDS011;64760;53.404;23.498;2022-11-23T12:33:11;37.53;;;11.43;;
73593;SDS011;64760;53.404;23.498;2022-11-23T12:38:54;18.70;;;8.30;;
73593;SDS011;64760;53.404;23.498;2022-11-23T12:49:52;22.45;;;9.20;;
73593;SDS011;64760;53.404;23.498;2022-11-23T12:52:47;28.25;;;10.48;;
73593;SDS011;64760;53.404;23.498;2022-11-23T12:58:45;23.27;;;10.05;;
73593;SDS011;64760;53.404;23.498;2022-11-23T13:01:21;7.03;;;5.18;;
73593;SDS011;64760;53.404;23.498;2022-11-23T13:18:18;15.10;;;6.00;;
73593;SDS011;64760;53.404;23.498;2022-11-23T13:21:23;19.13;;;6.70;;
73593;SDS011;64760;53.404;23.498;2022-11-23T13:23:51;13.23;;;5.85;;
73593;SDS011;64760;53.404;23.498;2022-11-23T13:26:19;19.63;;;6.80;;
73593;SDS011;64760;53.404;23.498;2022-11-23T13:28:50;11.55;;;5.07;;
73593;SDS011;64760;53.404;23.498;2022-11-23T13:31:19;10.88;;;5.07;;
73593;SDS011;64760;53.404;23.498;2022-11-23T13:33:55;16.55;;;6.78;;
73593;SDS011;64760;53.404;23.498;2022-11-23T13:38:57;13.23;;;5.93;;
73593;SDS011;64760;53.404;23.498;2022-11-23T13:44:19;46.97;;;16.30;;
73593;SDS011;64760;53.404;23.498;2022-11-23T13:47:30;23.10;;;10.75;;
73593;SDS011;64760;53.404;23.498;2022-11-23T13:49:51;21.23;;;9.75;;
73593;SDS011;64760;53.404;23.498;2022-11-23T13:52:32;15.70;;;6.85;;
73593;SDS011;64760;53.404;23.498;2022-11-23T13:57:37;28.67;;;9.02;;
73593;SDS011;64760;53.404;23.498;2022-11-23T14:09:05;37.95;;;12.52;;
73593;SDS011;64760;53.404;23.498;2022-11-23T14:11:54;33.90;;;12.68;;
73593;SDS011;64760;53.404;23.498;2022-11-23T14:20:24;27.80;;;11.05;;
73593;SDS011;64760;53.404;23.498;2022-11-23T14:31:21;24.35;;;10.00;;
73593;SDS011;64760;53.404;23.498;2022-11-23T14:34:15;27.17;;;13.75;;
73593;SDS011;64760;53.404;23.498;2022-11-23T14:36:57;9.10;;;4.68;;
73593;SDS011;64760;53.404;23.498;2022-11-23T14:39:36;28.15;;;12.13;;
73593;SDS011;64760;53.404;23.498;2022-11-23T14:42:14;52.63;;;16.02;;
73593;SDS011;64760;53.404;23.498;2022-11-23T14:44:43;45.13;;;16.35;;
73593;SDS011;64760;53.404;23.498;2022-11-23T14:47:10;21.48;;;10.48;;
73593;SDS011;64760;53.404;23.498;2022-11-23T14:49:46;31.50;;;10.27;;
73593;SDS011;64760;53.404;23.498;2022-11-23T14:52:20;21.65;;;9.27;;
73593;SDS011;64760;53.404;23.498;2022-11-23T14:54:49;37.60;;;15.07;;
73593;SDS011;64760;53.404;23.498;2022-11-23T14:57:17;33.47;;;16.65;;
73593;SDS011;64760;53.404;23.498;2022-11-23T14:59:46;29.35;;;10.20;;
73593;SDS011;64760;53.404;23.498;2022-11-23T15:02:24;15.02;;;7.32;;
73593;SDS011;64760;53.404;23.498;2022-11-23T15:07:49;32.47;;;14.30;;
73593;SDS011;64760;53.404;23.498;2022-11-23T15:12:55;16.45;;;6.07;;
73593;SDS011;64760;53.404;23.498;2022-11-23T15:15:25;19.10;;;8.27;;
73593;SDS011;64760;53.404;23.498;2022-11-23T15:17:55;20.55;;;6.80;;
73593;SDS011;64760;53.404;23.498;2022-11-23T15:20:25;19.88;;;8.23;;
73593;SDS011;64760;53.404;23.498;2022-11-23T15:23:21;27.70;;;10.80;;
73593;SDS011;64760;53.404;23.498;2022-11-23T15:25:49;33.42;;;14.10;;
73593;SDS011;64760;53.404;23.498;2022-11-23T15:28:24;24.40;;;8.07;;
73593;SDS011;64760;53.404;23.498;2022-11-23T15:30:52;34.08;;;15.45;;
73593;SDS011;64760;53.404;23.498;2022-11-23T15:33:19;32.85;;;13.70;;
73593;SDS011;64760;53.404;23.498;2022-11-23T15:35:48;26.55;;;11.55;;
73593;SDS011;64760;53.404;23.498;2022-11-23T15:38:18;13.82;;;6.20;;
73593;SDS011;64760;53.404;23.498;2022-11-23T15:40:46;25.88;;;7.78;;
73593;SDS011;64760;53.404;23.498;2022-11-23T15:43:15;30.02;;;12.48;;
73593;SDS011;64760;53.404;23.498;2022-11-23T15:48:17;20.48;;;7.78;;
73593;SDS011;64760;53.404;23.498;2022-11-23T15:50:56;27.40;;;11.57;;
73593;SDS011;64760;53.404;23.498;2022-11-23T15:53:40;36.55;;;13.98;;
73593;SDS011;64760;53.404;23.498;2022-11-23T15:56:22;30.80;;;10.20;;
73593;SDS011;64760;53.404;23.498;2022-11-23T15:58:53;36.90;;;14.45;;
73593;SDS011;64760;53.404;23.498;2022-11-23T16:01:21;41.30;;;15.05;;
73593;SDS011;64760;53.404;23.498;2022-11-23T16:06:37;24.23;;;10.32;;
73593;SDS011;64760;53.404;23.498;2022-11-23T16:12:18;24.33;;;10.40;;
73593;SDS011;64760;53.404;23.498;2022-11-23T16:14:52;17.73;;;5.13;;
73593;SDS011;64760;53.404;23.498;2022-11-23T16:17:21;14.50;;;6.30;;
73593;SDS011;64760;53.404;23.498;2022-11-23T16:19:50;22.60;;;8.93;;
73593;SDS011;64760;53.404;23.498;2022-11-23T16:22:23;32.50;;;12.90;;
73593;SDS011;64760;53.404;23.498;2022-11-23T16:24:56;41.85;;;16.00;;
73593;SDS011;64760;53.404;23.498;2022-11-23T16:27:26;44.00;;;17.33;;
73593;SDS011;64760;53.404;23.498;2022-11-23T16:29:53;63.47;;;21.23;;
73593;SDS011;64760;53.404;23.498;2022-11-23T16:32:20;40.83;;;15.43;;
73593;SDS011;64760;53.404;23.498;2022-11-23T16:34:54;49.70;;;20.17;;
73593;SDS011;64760;53.404;23.498;2022-11-23T16:37:23;34.05;;;13.45;;
73593;SDS011;64760;53.404;23.498;2022-11-23T16:39:51;51.45;;;18.88;;
73593;SDS011;64760;53.404;23.498;2022-11-23T16:42:17;30.00;;;11.52;;
73593;SDS011;64760;53.404;23.498;2022-11-23T16:44:44;37.33;;;14.43;;
73593;SDS011;64760;53.404;23.498;2022-11-23T16:47:26;32.05;;;12.02;;
73593;SDS011;64760;53.404;23.498;2022-11-23T16:49:53;30.98;;;13.73;;
73593;SDS011;64760;53.404;23.498;2022-11-23T16:52:20;33.90;;;13.32;;
73593;SDS011;64760;53.404;23.498;2022-11-23T16:54:48;36.08;;;15.65;;
73593;SDS011;64760;53.404;23.498;2022-11-23T16:57:22;37.42;;;13.45;;
73593;SDS011;64760;53.404;23.498;2022-11-23T16:59:56;35.17;;;15.35;;
73593;SDS011;64760;53.404;23.498;2022-11-23T17:02:23;36.40;;;14.68;;
73593;SDS011;64760;53.404;23.498;2022-11-23T17:04:50;25.50;;;9.90;;